createdAt,value
2023-03-29T00:03:44.296Z,101189.39
2023-03-29T00:06:50.604Z,101189.58
2023-03-29T00:09:56.446Z,101192.62
2023-03-29T00:13:02.530Z,101193.67
2023-03-29T00:16:09.095Z,101189.53
2023-03-29T00:19:14.846Z,101188.52
2023-03-29T00:22:20.615Z,101187.61
2023-03-29T00:25:26.257Z,101188.77
2023-03-29T00:28:32.272Z,101185.08
2023-03-29T00:31:38.035Z,101185.93
2023-03-29T00:34:46.057Z,101184.75
2023-03-29T00:37:53.101Z,101182.88
2023-03-29T00:40:58.735Z,101181.65
2023-03-29T00:44:05.983Z,101178.44
2023-03-29T00:47:11.642Z,101172.00
2023-03-29T00:50:22.388Z,101172.33
2023-03-29T00:53:30.358Z,101167.14
2023-03-29T00:56:38.755Z,101166.48
2023-03-29T00:59:45.176Z,101161.85
2023-03-29T01:02:55.354Z,101154.49
2023-03-29T01:06:04.169Z,101153.16
2023-03-29T01:09:10.995Z,101151.88
2023-03-29T01:12:18.559Z,101145.39
2023-03-29T01:15:28.910Z,101140.50
2023-03-29T01:18:55.434Z,101136.83
2023-03-29T01:22:32.263Z,101140.78
2023-03-29T01:26:03.136Z,101140.97
2023-03-29T01:29:33.266Z,101137.30
2023-03-29T01:33:02.032Z,101143.02
2023-03-29T01:36:30.908Z,101138.16
2023-03-29T01:39:47.318Z,101137.57
2023-03-29T01:43:18.992Z,101131.39
2023-03-29T01:46:47.464Z,101123.61
2023-03-29T01:50:16.203Z,101122.80
2023-03-29T01:53:45.294Z,101122.75
2023-03-29T01:57:11.919Z,101121.21
2023-03-29T02:00:40.089Z,101116.19
2023-03-29T02:04:08.162Z,101114.42
2023-03-29T02:07:37.496Z,101116.12
2023-03-29T02:11:04.782Z,101115.13
2023-03-29T02:14:30.888Z,101104.80
2023-03-29T02:17:57.456Z,101109.34
2023-03-29T02:21:03.984Z,101108.05
2023-03-29T02:24:12.148Z,101100.87
2023-03-29T02:27:18.517Z,101097.05
2023-03-29T02:30:28.938Z,101093.14
2023-03-29T02:33:39.683Z,101092.35
2023-03-29T02:36:48.088Z,101088.98
2023-03-29T02:39:54.745Z,101084.60
2023-03-29T02:43:01.753Z,101086.98
2023-03-29T02:46:09.230Z,101082.96
2023-03-29T02:49:17.553Z,101078.02
2023-03-29T02:52:26.893Z,101077.13
2023-03-29T02:55:36.455Z,101070.17
2023-03-29T02:58:41.735Z,101066.31
2023-03-29T03:01:47.605Z,101055.15
2023-03-29T03:04:53.773Z,101050.53
2023-03-29T03:07:59.768Z,101053.52
2023-03-29T03:11:05.426Z,101048.98
2023-03-29T03:14:11.185Z,101048.37
2023-03-29T03:17:18.858Z,101047.70
2023-03-29T03:20:27.146Z,101049.15
2023-03-29T03:23:33.649Z,101049.02
2023-03-29T03:26:41.643Z,101044.07
2023-03-29T03:29:50.853Z,101041.20
2023-03-29T03:32:56.846Z,101038.42
2023-03-29T03:36:34.880Z,101039.94
2023-03-29T03:39:40.933Z,101037.52
2023-03-29T03:42:48.280Z,101032.70
2023-03-29T03:45:54.051Z,101036.16
2023-03-29T03:49:02.565Z,101037.16
2023-03-29T03:52:11.222Z,101030.02
2023-03-29T03:55:17.293Z,101028.05
2023-03-29T03:58:30.561Z,101031.33
2023-03-29T04:01:38.247Z,101030.26
2023-03-29T04:04:50.840Z,101029.45
2023-03-29T04:07:58.237Z,101024.73
2023-03-29T04:11:24.681Z,101024.61
2023-03-29T04:14:32.302Z,101025.02
2023-03-29T04:17:43.326Z,101028.25
2023-03-29T04:20:59.270Z,101026.75
2023-03-29T04:24:25.735Z,101024.58
2023-03-29T04:27:54.273Z,101022.29
2023-03-29T04:31:20.429Z,101018.98
2023-03-29T04:34:44.758Z,101021.52
2023-03-29T04:38:12.986Z,101022.05
2023-03-29T04:41:39.692Z,101019.66
2023-03-29T04:45:07.473Z,101014.67
2023-03-29T04:48:33.599Z,101013.36
2023-03-29T04:52:01.155Z,101006.77
2023-03-29T04:55:27.135Z,101003.69
2023-03-29T04:58:58.831Z,101003.74
2023-03-29T05:02:24.831Z,101000.69
2023-03-29T05:05:51.312Z,100993.82
2023-03-29T05:09:17.717Z,100986.77
2023-03-29T05:12:43.708Z,100978.84
2023-03-29T05:16:11.332Z,100976.23
2023-03-29T05:19:38.457Z,100972.82
2023-03-29T05:23:04.286Z,100965.74
2023-03-29T05:26:40.226Z,100960.23
2023-03-29T05:29:46.715Z,100960.86
2023-03-29T05:33:06.568Z,100962.06
2023-03-29T05:36:13.726Z,100963.95
2023-03-29T05:39:23.555Z,100963.81
2023-03-29T05:42:29.484Z,100965.55
2023-03-29T05:45:44.115Z,100969.27
2023-03-29T05:48:49.658Z,100968.63
2023-03-29T05:51:57.282Z,100974.09
2023-03-29T05:55:04.493Z,100974.95
2023-03-29T05:58:10.466Z,100968.48
2023-03-29T06:01:19.098Z,100960.81
2023-03-29T06:04:33.767Z,100960.42
2023-03-29T06:08:04.594Z,100963.01
2023-03-29T06:11:28.057Z,100960.83
2023-03-29T06:14:42.538Z,100952.10
2023-03-29T06:17:58.450Z,100949.73
2023-03-29T06:21:04.403Z,100947.39
2023-03-29T06:24:10.615Z,100951.70
2023-03-29T06:27:20.695Z,100950.85
2023-03-29T06:30:26.804Z,100945.46
2023-03-29T06:33:34.600Z,100944.17
2023-03-29T06:36:43.437Z,100944.67
2023-03-29T06:39:54.249Z,100944.08
2023-03-29T06:43:05.306Z,100945.63
2023-03-29T06:46:24.551Z,100944.84
2023-03-29T06:49:57.030Z,100945.21
2023-03-29T06:53:09.134Z,100943.85
2023-03-29T06:56:14.798Z,100946.01
2023-03-29T06:59:22.566Z,100944.80
2023-03-29T07:02:34.739Z,100942.88
2023-03-29T07:05:51.882Z,100939.44
2023-03-29T07:09:01.792Z,100934.55
2023-03-29T07:12:36.624Z,100925.95
2023-03-29T07:15:45.200Z,100928.48
2023-03-29T07:19:03.874Z,100931.89
2023-03-29T07:22:35.486Z,100934.70
2023-03-29T07:25:43.659Z,100930.52
2023-03-29T07:28:50.456Z,100931.71
2023-03-29T07:31:56.602Z,100932.96
2023-03-29T07:35:21.299Z,100928.36
2023-03-29T07:38:27.362Z,100930.95
2023-03-29T07:41:37.963Z,100928.84
2023-03-29T07:44:51.871Z,100925.66
2023-03-29T07:48:00.727Z,100927.53
2023-03-29T07:51:13.332Z,100930.62
2023-03-29T07:54:24.164Z,100929.76
2023-03-29T07:57:35.090Z,100929.58
2023-03-29T08:00:44.969Z,100929.70
2023-03-29T08:04:25.044Z,100927.14
2023-03-29T08:07:52.085Z,100925.62
2023-03-29T08:11:21.266Z,100923.51
2023-03-29T08:14:38.888Z,100927.02
2023-03-29T08:18:03.678Z,100926.95
2023-03-29T08:21:11.029Z,100925.54
2023-03-29T08:24:23.724Z,100928.50
2023-03-29T08:27:38.234Z,100926.14
2023-03-29T08:30:48.297Z,100918.92
2023-03-29T08:34:23.939Z,100916.08
2023-03-29T08:37:39.357Z,100919.73
2023-03-29T08:40:48.659Z,100925.59
2023-03-29T08:44:11.434Z,100919.92
2023-03-29T08:47:46.806Z,100923.41
2023-03-29T08:50:54.297Z,100934.13
2023-03-29T08:54:01.832Z,100935.73
2023-03-29T08:59:30.692Z,100937.91
2023-03-29T09:03:04.689Z,100938.79
2023-03-29T09:06:18.375Z,100933.26
2023-03-29T09:09:45.517Z,100929.16
2023-03-29T09:14:09.666Z,100916.08
2023-03-29T09:18:02.750Z,100917.91
2023-03-29T09:21:33.227Z,100909.16
2023-03-29T09:25:05.545Z,100910.48
2023-03-29T09:28:57.521Z,100906.73
2023-03-29T09:32:24.193Z,100897.66
2023-03-29T09:35:54.311Z,100896.31
2023-03-29T09:39:21.179Z,100891.70
2023-03-29T09:42:48.631Z,100894.13
2023-03-29T09:46:18.784Z,100888.63
2023-03-29T09:49:48.433Z,100889.73
2023-03-29T09:53:16.339Z,100893.97
2023-03-29T09:56:43.510Z,100889.41
2023-03-29T10:00:31.094Z,100889.83
2023-03-29T10:03:58.366Z,100896.02
2023-03-29T10:07:24.067Z,100886.16
2023-03-29T10:10:50.118Z,100867.27
2023-03-29T10:14:20.683Z,100872.69
2023-03-29T10:17:46.569Z,100869.11
2023-03-29T10:21:15.273Z,100864.76
2023-03-29T10:24:41.191Z,100870.42
2023-03-29T10:28:12.094Z,100859.30
2023-03-29T10:31:41.925Z,100863.38
2023-03-29T10:35:10.796Z,100863.14
2023-03-29T10:38:38.198Z,100867.59
2023-03-29T10:42:05.422Z,100866.06
2023-03-29T10:45:32.829Z,100872.06
2023-03-29T10:49:00.026Z,100859.88
2023-03-29T10:52:42.043Z,100852.61
2023-03-29T10:56:24.561Z,100852.55
2023-03-29T11:00:35.758Z,100851.27
2023-03-29T11:04:10.095Z,100856.73
2023-03-29T11:07:40.101Z,100852.77
2023-03-29T11:11:14.289Z,100838.95
2023-03-29T11:14:47.489Z,100846.20
2023-03-29T11:18:27.778Z,100834.86
2023-03-29T11:21:57.336Z,100824.85
2023-03-29T11:25:30.302Z,100823.89
2023-03-29T11:28:58.605Z,100827.27
2023-03-29T11:32:27.791Z,100824.65
2023-03-29T11:35:56.321Z,100822.15
2023-03-29T11:39:28.475Z,100812.20
2023-03-29T11:42:56.977Z,100813.80
2023-03-29T11:46:26.451Z,100799.66
2023-03-29T11:49:56.293Z,100800.37
2023-03-29T11:53:28.096Z,100793.41
2023-03-29T11:56:57.726Z,100787.60
2023-03-29T12:00:26.120Z,100779.63
2023-03-29T12:03:54.517Z,100769.30
2023-03-29T12:07:25.321Z,100782.36
2023-03-29T12:10:54.206Z,100783.80
2023-03-29T12:14:26.085Z,100773.76
2023-03-29T12:17:58.153Z,100758.84
2023-03-29T12:21:24.933Z,100758.99
2023-03-29T12:24:36.891Z,100757.88
2023-03-29T12:27:49.572Z,100756.22
2023-03-29T12:31:07.117Z,100752.80
2023-03-29T12:34:27.232Z,100750.56
2023-03-29T12:37:47.051Z,100743.30
2023-03-29T12:41:16.741Z,100739.66
2023-03-29T12:44:42.853Z,100727.81
2023-03-29T12:47:59.142Z,100721.06
2023-03-29T12:51:10.225Z,100711.48
2023-03-29T12:54:21.433Z,100712.84
2023-03-29T12:57:30.107Z,100710.46
2023-03-29T13:00:44.789Z,100701.20
2023-03-29T13:03:52.173Z,100705.03
2023-03-29T13:07:04.967Z,100704.05
2023-03-29T13:10:11.627Z,100715.44
2023-03-29T13:13:28.710Z,100709.42
2023-03-29T13:16:44.126Z,100710.25
2023-03-29T13:19:53.932Z,100703.70
2023-03-29T13:23:10.808Z,100702.93
2023-03-29T13:26:23.434Z,100691.98
2023-03-29T13:29:48.081Z,100685.31
2023-03-29T13:33:13.077Z,100676.40
2023-03-29T13:36:25.778Z,100674.52
2023-03-29T13:39:37.779Z,100678.96
2023-03-29T13:42:43.656Z,100687.56
2023-03-29T13:46:17.867Z,100678.92
2023-03-29T13:49:25.484Z,100672.48
2023-03-29T13:52:32.045Z,100672.84
2023-03-29T13:55:52.082Z,100678.45
2023-03-29T13:59:04.265Z,100675.60
2023-03-29T14:02:18.761Z,100664.61
2023-03-29T14:05:26.044Z,100665.13
2023-03-29T14:08:40.439Z,100651.58
2023-03-29T14:11:47.761Z,100642.08
2023-03-29T14:14:59.275Z,100638.02
2023-03-29T14:18:12.363Z,100633.69
2023-03-29T14:21:21.756Z,100630.05
2023-03-29T14:24:36.513Z,100623.20
2023-03-29T14:27:42.620Z,100621.83
2023-03-29T14:31:17.896Z,100618.63
2023-03-29T14:34:24.020Z,100608.70
2023-03-29T14:37:30.187Z,100602.63
2023-03-29T14:40:35.827Z,100598.09
2023-03-29T14:43:51.624Z,100604.05
2023-03-29T14:47:19.767Z,100601.21
2023-03-29T14:50:46.988Z,100593.17
2023-03-29T14:53:58.756Z,100587.14
2023-03-29T14:57:08.368Z,100587.08
2023-03-29T15:00:20.049Z,100584.58
2023-03-29T15:03:27.379Z,100575.52
2023-03-29T15:06:34.061Z,100565.93
2023-03-29T15:09:51.128Z,100560.10
2023-03-29T15:12:57.322Z,100553.98
2023-03-29T15:16:10.512Z,100541.20
2023-03-29T15:19:20.825Z,100532.45
2023-03-29T15:22:38.524Z,100523.52
2023-03-29T15:25:49.470Z,100521.59
2023-03-29T15:29:03.237Z,100514.86
2023-03-29T15:32:11.710Z,100513.52
2023-03-29T15:35:24.696Z,100508.91
2023-03-29T15:38:40.905Z,100507.95
2023-03-29T15:41:52.415Z,100503.30
2023-03-29T15:45:19.245Z,100501.82
2023-03-29T15:48:46.531Z,100500.13
2023-03-29T15:51:56.741Z,100496.30
2023-03-29T15:55:02.587Z,100504.81
2023-03-29T15:58:08.481Z,100498.21
2023-03-29T16:01:34.134Z,100496.17
2023-03-29T16:04:39.843Z,100491.97
2023-03-29T16:07:48.114Z,100488.54
2023-03-29T16:10:53.594Z,100491.84
2023-03-29T16:14:02.395Z,100480.09
2023-03-29T16:17:07.827Z,100483.55
2023-03-29T16:20:20.205Z,100487.21
2023-03-29T16:23:31.225Z,100492.82
2023-03-29T16:26:40.717Z,100487.39
2023-03-29T16:29:48.952Z,100481.34
2023-03-29T16:32:54.621Z,100494.58
2023-03-29T16:36:00.641Z,100494.77
2023-03-29T16:39:10.622Z,100492.04
2023-03-29T16:42:16.687Z,100482.56
2023-03-29T16:45:25.450Z,100486.39
2023-03-29T16:48:31.096Z,100483.50
2023-03-29T16:51:39.931Z,100474.45
2023-03-29T16:54:46.150Z,100463.46
2023-03-29T16:57:52.014Z,100455.46
2023-03-29T17:01:14.873Z,100459.55
2023-03-29T17:04:27.905Z,100452.15
2023-03-29T17:07:44.953Z,100449.21
2023-03-29T17:10:54.129Z,100450.33
2023-03-29T17:14:00.676Z,100458.54
2023-03-29T17:17:15.488Z,100444.70
2023-03-29T17:20:41.460Z,100444.07
2023-03-29T17:23:52.580Z,100450.16
2023-03-29T17:27:01.173Z,100459.25
2023-03-29T17:30:07.979Z,100458.64
2023-03-29T17:33:13.795Z,100449.31
2023-03-29T17:36:24.328Z,100448.16
2023-03-29T17:39:37.278Z,100449.79
2023-03-29T17:42:48.254Z,100447.92
2023-03-29T17:45:56.873Z,100451.39
2023-03-29T17:49:04.126Z,100449.19
2023-03-29T17:52:12.596Z,100458.79
2023-03-29T17:55:18.776Z,100456.45
2023-03-29T17:58:27.189Z,100453.98
2023-03-29T18:01:41.829Z,100456.36
2023-03-29T18:04:54.754Z,100453.73
2023-03-29T18:08:00.280Z,100453.73
2023-03-29T18:11:11.598Z,100448.77
2023-03-29T18:14:17.622Z,100454.49
2023-03-29T18:17:24.288Z,100460.55
2023-03-29T18:20:49.581Z,100458.24
2023-03-29T18:23:57.042Z,100457.91
2023-03-29T18:27:12.396Z,100459.86
2023-03-29T18:30:18.168Z,100459.64
2023-03-29T18:33:27.224Z,100460.28
2023-03-29T18:36:35.842Z,100456.98
2023-03-29T18:39:43.152Z,100449.93
2023-03-29T18:42:48.636Z,100453.05
2023-03-29T18:45:54.047Z,100455.46
2023-03-29T18:49:03.388Z,100456.42
2023-03-29T18:52:11.388Z,100450.36
2023-03-29T18:55:17.135Z,100449.52
2023-03-29T18:58:24.186Z,100450.83
2023-03-29T19:01:32.095Z,100447.52
2023-03-29T19:04:37.682Z,100438.85
2023-03-29T19:07:46.988Z,100436.00
2023-03-29T19:10:53.132Z,100435.63
2023-03-29T19:13:58.681Z,100435.20
2023-03-29T19:17:06.861Z,100440.70
2023-03-29T19:20:13.647Z,100438.48
2023-03-29T19:23:25.190Z,100438.80
2023-03-29T19:26:34.226Z,100434.44
2023-03-29T19:29:39.748Z,100428.27
2023-03-29T19:32:48.340Z,100428.19
2023-03-29T19:35:54.056Z,100431.84
2023-03-29T19:39:01.967Z,100428.01
2023-03-29T19:42:07.860Z,100429.21
2023-03-29T19:45:13.506Z,100431.83
2023-03-29T19:48:24.488Z,100428.16
2023-03-29T19:51:32.875Z,100424.93
2023-03-29T19:54:38.458Z,100427.27
2023-03-29T19:57:44.090Z,100432.46
2023-03-29T20:00:50.757Z,100436.86
2023-03-29T20:03:56.376Z,100437.25
2023-03-29T20:07:02.412Z,100431.79
2023-03-29T20:10:09.869Z,100427.40
2023-03-29T20:13:27.772Z,100427.75
2023-03-29T20:16:44.185Z,100423.61
2023-03-29T20:19:54.019Z,100425.14
2023-03-29T20:23:05.252Z,100422.32
2023-03-29T20:26:11.717Z,100423.61
2023-03-29T20:29:20.146Z,100423.52
2023-03-29T20:32:25.921Z,100415.39
2023-03-29T20:35:42.533Z,100412.56
2023-03-29T20:38:51.705Z,100409.85
2023-03-29T20:42:06.611Z,100406.10
2023-03-29T20:45:19.630Z,100407.68
2023-03-29T20:48:31.609Z,100409.47
2023-03-29T20:51:40.464Z,100407.09
2023-03-29T20:54:55.162Z,100405.09
2023-03-29T20:58:10.289Z,100402.17
2023-03-29T21:01:26.166Z,100404.55
2023-03-29T21:04:42.186Z,100398.67
2023-03-29T21:07:55.683Z,100392.27
2023-03-29T21:11:01.472Z,100395.00
2023-03-29T21:14:10.422Z,100388.09
2023-03-29T21:17:16.107Z,100378.83
2023-03-29T21:20:24.771Z,100377.36
2023-03-29T21:23:30.523Z,100380.05
2023-03-29T21:26:41.220Z,100381.51
2023-03-29T21:29:50.413Z,100373.21
2023-03-29T21:32:55.950Z,100375.39
2023-03-29T21:36:04.403Z,100375.84
2023-03-29T21:39:09.993Z,100372.71
2023-03-29T21:42:18.647Z,100369.30
2023-03-29T21:45:27.252Z,100361.43
2023-03-29T21:48:32.943Z,100357.55
2023-03-29T21:51:41.618Z,100356.21
2023-03-29T21:54:47.227Z,100350.54
2023-03-29T21:57:55.049Z,100341.98
2023-03-29T22:01:03.708Z,100337.19
2023-03-29T22:04:09.447Z,100338.06
2023-03-29T22:07:15.132Z,100333.13
2023-03-29T22:10:33.079Z,100331.96
2023-03-29T22:13:38.884Z,100329.13
2023-03-29T22:16:45.667Z,100325.94
2023-03-29T22:19:51.805Z,100325.69
2023-03-29T22:22:57.399Z,100318.91
2023-03-29T22:26:06.947Z,100316.26
2023-03-29T22:29:12.480Z,100320.76
2023-03-29T22:32:18.281Z,100317.47
2023-03-29T22:35:24.124Z,100308.13
2023-03-29T22:38:29.924Z,100310.84
2023-03-29T22:41:35.551Z,100304.69
2023-03-29T22:44:43.643Z,100311.59
2023-03-29T22:47:56.669Z,100310.97
2023-03-29T22:51:07.089Z,100307.52
2023-03-29T22:54:12.731Z,100315.95
2023-03-29T22:57:21.731Z,100310.09
2023-03-29T23:00:27.964Z,100305.84
2023-03-29T23:03:33.580Z,100302.89
2023-03-29T23:06:42.261Z,100301.13
2023-03-29T23:09:47.886Z,100298.05
2023-03-29T23:13:05.696Z,100293.14
2023-03-29T23:16:11.812Z,100290.45
2023-03-29T23:19:19.522Z,100287.90
2023-03-29T23:22:25.040Z,100283.11
2023-03-29T23:25:31.556Z,100284.08
2023-03-29T23:28:41.137Z,100284.33
2023-03-29T23:31:47.772Z,100282.97
2023-03-29T23:34:56.298Z,100282.02
2023-03-29T23:38:01.743Z,100277.19
2023-03-29T23:41:13.155Z,100276.66
2023-03-29T23:44:39.527Z,100275.36
2023-03-29T23:47:47.465Z,100269.78
2023-03-29T23:51:13.230Z,100267.01
2023-03-29T23:54:18.683Z,100265.46
2023-03-29T23:57:27.075Z,100266.50
